sensor_id;sensor_type;location;lat;lon;timestamp;temperature;humidity
49731;DHT22;35622;52.008;5.426;2023-04-25T00:01:15;9.00;82.80
49731;DHT22;35622;52.008;5.426;2023-04-25T00:03:40;9.00;82.80
49731;DHT22;35622;52.008;5.426;2023-04-25T00:06:06;9.00;82.80
49731;DHT22;35622;52.008;5.426;2023-04-25T00:08:32;8.90;82.70
49731;DHT22;35622;52.008;5.426;2023-04-25T00:10:59;8.90;83.00
49731;DHT22;35622;52.008;5.426;2023-04-25T00:13:25;8.90;83.00
49731;DHT22;35622;52.008;5.426;2023-04-25T00:15:51;8.90;83.10
49731;DHT22;35622;52.008;5.426;2023-04-25T00:18:18;8.80;83.00
49731;DHT22;35622;52.008;5.426;2023-04-25T00:20:44;8.80;83.10
49731;DHT22;35622;52.008;5.426;2023-04-25T00:23:10;8.80;83.40
49731;DHT22;35622;52.008;5.426;2023-04-25T00:25:35;8.90;83.70
49731;DHT22;35622;52.008;5.426;2023-04-25T00:28:01;8.90;83.90
49731;DHT22;35622;52.008;5.426;2023-04-25T00:30:27;9.00;84.00
49731;DHT22;35622;52.008;5.426;2023-04-25T00:32:52;9.10;84.20
49731;DHT22;35622;52.008;5.426;2023-04-25T00:35:18;9.10;84.10
49731;DHT22;35622;52.008;5.426;2023-04-25T00:37:44;9.30;84.10
49731;DHT22;35622;52.008;5.426;2023-04-25T00:40:10;9.30;84.20
49731;DHT22;35622;52.008;5.426;2023-04-25T00:42:37;9.40;84.20
49731;DHT22;35622;52.008;5.426;2023-04-25T00:45:05;9.40;84.50
49731;DHT22;35622;52.008;5.426;2023-04-25T00:47:31;9.40;84.90
49731;DHT22;35622;52.008;5.426;2023-04-25T00:49:58;9.60;85.20
49731;DHT22;35622;52.008;5.426;2023-04-25T00:52:23;9.60;85.30
49731;DHT22;35622;52.008;5.426;2023-04-25T00:54:49;9.80;85.80
49731;DHT22;35622;52.008;5.426;2023-04-25T00:57:15;9.80;85.20
49731;DHT22;35622;52.008;5.426;2023-04-25T00:59:44;9.80;85.30
49731;DHT22;35622;52.008;5.426;2023-04-25T01:02:10;9.80;85.50
49731;DHT22;35622;52.008;5.426;2023-04-25T01:04:36;9.80;85.30
49731;DHT22;35622;52.008;5.426;2023-04-25T01:07:02;9.80;85.60
49731;DHT22;35622;52.008;5.426;2023-04-25T01:09:30;9.80;85.50
49731;DHT22;35622;52.008;5.426;2023-04-25T01:11:56;9.90;85.50
49731;DHT22;35622;52.008;5.426;2023-04-25T01:14:23;9.80;85.20
49731;DHT22;35622;52.008;5.426;2023-04-25T01:16:48;9.90;84.90
49731;DHT22;35622;52.008;5.426;2023-04-25T01:19:16;9.80;84.80
49731;DHT22;35622;52.008;5.426;2023-04-25T01:21:42;9.80;84.80
49731;DHT22;35622;52.008;5.426;2023-04-25T01:24:08;9.80;84.70
49731;DHT22;35622;52.008;5.426;2023-04-25T01:26:34;9.70;84.70
49731;DHT22;35622;52.008;5.426;2023-04-25T01:29:00;9.70;84.60
49731;DHT22;35622;52.008;5.426;2023-04-25T01:31:27;9.60;84.50
49731;DHT22;35622;52.008;5.426;2023-04-25T01:33:52;9.50;84.50
49731;DHT22;35622;52.008;5.426;2023-04-25T01:36:18;9.40;84.20
49731;DHT22;35622;52.008;5.426;2023-04-25T01:38:44;9.40;84.00
49731;DHT22;35622;52.008;5.426;2023-04-25T01:41:13;9.30;83.90
49731;DHT22;35622;52.008;5.426;2023-04-25T01:43:39;9.20;83.80
49731;DHT22;35622;52.008;5.426;2023-04-25T01:46:04;9.10;83.70
49731;DHT22;35622;52.008;5.426;2023-04-25T01:48:30;9.00;83.60
49731;DHT22;35622;52.008;5.426;2023-04-25T01:50:56;9.00;83.50
49731;DHT22;35622;52.008;5.426;2023-04-25T01:53:21;8.80;83.40
49731;DHT22;35622;52.008;5.426;2023-04-25T01:55:48;8.70;83.30
49731;DHT22;35622;52.008;5.426;2023-04-25T01:58:13;8.70;83.40
49731;DHT22;35622;52.008;5.426;2023-04-25T02:00:39;8.60;83.60
49731;DHT22;35622;52.008;5.426;2023-04-25T02:03:06;8.40;83.70
49731;DHT22;35622;52.008;5.426;2023-04-25T02:05:35;8.40;84.00
49731;DHT22;35622;52.008;5.426;2023-04-25T02:08:02;8.40;83.70
49731;DHT22;35622;52.008;5.426;2023-04-25T02:10:28;8.30;83.60
49731;DHT22;35622;52.008;5.426;2023-04-25T02:12:54;8.30;83.70
49731;DHT22;35622;52.008;5.426;2023-04-25T02:15:19;8.20;83.80
49731;DHT22;35622;52.008;5.426;2023-04-25T02:17:45;8.20;83.80
49731;DHT22;35622;52.008;5.426;2023-04-25T02:20:11;8.10;83.90
49731;DHT22;35622;52.008;5.426;2023-04-25T02:22:37;8.00;83.90
49731;DHT22;35622;52.008;5.426;2023-04-25T02:25:03;8.00;84.20
49731;DHT22;35622;52.008;5.426;2023-04-25T02:27:30;7.90;84.30
49731;DHT22;35622;52.008;5.426;2023-04-25T02:29:56;7.90;84.30
49731;DHT22;35622;52.008;5.426;2023-04-25T02:32:21;7.80;84.20
49731;DHT22;35622;52.008;5.426;2023-04-25T02:34:47;7.80;84.40
49731;DHT22;35622;52.008;5.426;2023-04-25T02:37:13;7.70;84.40
49731;DHT22;35622;52.008;5.426;2023-04-25T02:39:39;7.70;84.40
49731;DHT22;35622;52.008;5.426;2023-04-25T02:42:05;7.60;84.40
49731;DHT22;35622;52.008;5.426;2023-04-25T02:44:30;7.60;84.30
49731;DHT22;35622;52.008;5.426;2023-04-25T02:46:56;7.50;84.00
49731;DHT22;35622;52.008;5.426;2023-04-25T02:49:21;7.50;84.20
49731;DHT22;35622;52.008;5.426;2023-04-25T02:51:47;7.50;84.30
49731;DHT22;35622;52.008;5.426;2023-04-25T02:54:13;7.50;84.30
49731;DHT22;35622;52.008;5.426;2023-04-25T02:56:38;7.40;84.60
49731;DHT22;35622;52.008;5.426;2023-04-25T02:59:04;7.50;84.90
49731;DHT22;35622;52.008;5.426;2023-04-25T03:01:29;7.50;84.90
49731;DHT22;35622;52.008;5.426;2023-04-25T03:03:55;7.40;84.80
49731;DHT22;35622;52.008;5.426;2023-04-25T03:06:20;7.40;84.80
49731;DHT22;35622;52.008;5.426;2023-04-25T03:08:46;7.40;84.90
49731;DHT22;35622;52.008;5.426;2023-04-25T03:11:11;7.40;85.00
49731;DHT22;35622;52.008;5.426;2023-04-25T03:13:37;7.40;85.00
49731;DHT22;35622;52.008;5.426;2023-04-25T03:16:03;7.40;85.20
49731;DHT22;35622;52.008;5.426;2023-04-25T03:18:28;7.40;85.60
49731;DHT22;35622;52.008;5.426;2023-04-25T03:20:54;7.50;85.70
49731;DHT22;35622;52.008;5.426;2023-04-25T03:23:19;7.50;85.70
49731;DHT22;35622;52.008;5.426;2023-04-25T03:25:45;7.60;85.70
49731;DHT22;35622;52.008;5.426;2023-04-25T03:28:10;7.60;85.60
49731;DHT22;35622;52.008;5.426;2023-04-25T03:30:36;7.60;85.90
49731;DHT22;35622;52.008;5.426;2023-04-25T03:33:01;7.60;85.70
49731;DHT22;35622;52.008;5.426;2023-04-25T03:35:27;7.60;85.60
49731;DHT22;35622;52.008;5.426;2023-04-25T03:37:53;7.50;85.60
49731;DHT22;35622;52.008;5.426;2023-04-25T03:40:18;7.50;85.80
49731;DHT22;35622;52.008;5.426;2023-04-25T03:42:44;7.50;86.00
49731;DHT22;35622;52.008;5.426;2023-04-25T03:45:09;7.60;86.10
49731;DHT22;35622;52.008;5.426;2023-04-25T03:47:35;7.60;86.00
49731;DHT22;35622;52.008;5.426;2023-04-25T03:50:00;7.70;85.90
49731;DHT22;35622;52.008;5.426;2023-04-25T03:52:27;7.70;85.80
49731;DHT22;35622;52.008;5.426;2023-04-25T03:54:53;7.80;86.00
49731;DHT22;35622;52.008;5.426;2023-04-25T03:57:18;7.80;86.10
49731;DHT22;35622;52.008;5.426;2023-04-25T03:59:44;7.90;86.30
49731;DHT22;35622;52.008;5.426;2023-04-25T04:02:11;7.90;86.20
49731;DHT22;35622;52.008;5.426;2023-04-25T04:04:36;8.00;86.60
49731;DHT22;35622;52.008;5.426;2023-04-25T04:07:02;8.10;86.40
49731;DHT22;35622;52.008;5.426;2023-04-25T04:09:28;8.10;86.40
49731;DHT22;35622;52.008;5.426;2023-04-25T04:11:53;8.20;86.40
49731;DHT22;35622;52.008;5.426;2023-04-25T04:14:19;8.20;86.20
49731;DHT22;35622;52.008;5.426;2023-04-25T04:16:45;8.30;86.30
49731;DHT22;35622;52.008;5.426;2023-04-25T04:19:10;8.30;87.10
49731;DHT22;35622;52.008;5.426;2023-04-25T04:21:36;8.30;86.40
49731;DHT22;35622;52.008;5.426;2023-04-25T04:24:01;8.30;86.70
49731;DHT22;35622;52.008;5.426;2023-04-25T04:26:27;8.30;86.90
49731;DHT22;35622;52.008;5.426;2023-04-25T04:28:53;8.40;86.90
49731;DHT22;35622;52.008;5.426;2023-04-25T04:31:23;8.40;86.90
49731;DHT22;35622;52.008;5.426;2023-04-25T04:33:49;8.40;86.80
49731;DHT22;35622;52.008;5.426;2023-04-25T04:36:15;8.50;87.00
49731;DHT22;35622;52.008;5.426;2023-04-25T04:38:41;8.50;87.00
49731;DHT22;35622;52.008;5.426;2023-04-25T04:41:07;8.60;87.10
49731;DHT22;35622;52.008;5.426;2023-04-25T04:43:33;8.60;86.80
49731;DHT22;35622;52.008;5.426;2023-04-25T04:46:03;8.60;86.70
49731;DHT22;35622;52.008;5.426;2023-04-25T04:48:31;8.60;86.80
49731;DHT22;35622;52.008;5.426;2023-04-25T04:50:59;8.60;87.10
49731;DHT22;35622;52.008;5.426;2023-04-25T04:53:25;8.60;87.30
49731;DHT22;35622;52.008;5.426;2023-04-25T04:55:51;8.70;87.40
49731;DHT22;35622;52.008;5.426;2023-04-25T04:58:16;8.80;87.40
49731;DHT22;35622;52.008;5.426;2023-04-25T05:00:42;8.90;87.40
49731;DHT22;35622;52.008;5.426;2023-04-25T05:03:07;8.90;87.30
49731;DHT22;35622;52.008;5.426;2023-04-25T05:05:33;9.00;87.50
49731;DHT22;35622;52.008;5.426;2023-04-25T05:07:59;9.10;87.60
49731;DHT22;35622;52.008;5.426;2023-04-25T05:10:25;9.20;87.40
49731;DHT22;35622;52.008;5.426;2023-04-25T05:12:51;9.20;87.20
49731;DHT22;35622;52.008;5.426;2023-04-25T05:15:16;9.30;87.30
49731;DHT22;35622;52.008;5.426;2023-04-25T05:17:42;9.30;87.40
49731;DHT22;35622;52.008;5.426;2023-04-25T05:20:08;9.30;87.40
49731;DHT22;35622;52.008;5.426;2023-04-25T05:22:36;9.40;87.70
49731;DHT22;35622;52.008;5.426;2023-04-25T05:25:03;9.50;87.90
49731;DHT22;35622;52.008;5.426;2023-04-25T05:27:29;9.60;88.20
49731;DHT22;35622;52.008;5.426;2023-04-25T05:29:54;9.80;88.50
49731;DHT22;35622;52.008;5.426;2023-04-25T05:32:20;9.90;88.70
49731;DHT22;35622;52.008;5.426;2023-04-25T05:34:45;10.10;88.90
49731;DHT22;35622;52.008;5.426;2023-04-25T05:37:11;10.40;88.90
49731;DHT22;35622;52.008;5.426;2023-04-25T05:39:37;10.60;88.80
49731;DHT22;35622;52.008;5.426;2023-04-25T05:42:02;10.80;88.70
49731;DHT22;35622;52.008;5.426;2023-04-25T05:44:30;11.10;89.10
49731;DHT22;35622;52.008;5.426;2023-04-25T05:46:56;11.30;86.60
49731;DHT22;35622;52.008;5.426;2023-04-25T05:49:22;11.80;88.00
49731;DHT22;35622;52.008;5.426;2023-04-25T05:51:47;12.80;88.20
49731;DHT22;35622;52.008;5.426;2023-04-25T05:54:13;13.10;84.20
49731;DHT22;35622;52.008;5.426;2023-04-25T05:56:38;13.10;81.20
49731;DHT22;35622;52.008;5.426;2023-04-25T05:59:04;12.90;79.20
49731;DHT22;35622;52.008;5.426;2023-04-25T06:01:30;12.90;78.60
49731;DHT22;35622;52.008;5.426;2023-04-25T06:03:56;12.80;77.20
49731;DHT22;35622;52.008;5.426;2023-04-25T06:06:21;12.80;75.20
49731;DHT22;35622;52.008;5.426;2023-04-25T06:08:47;12.80;74.40
49731;DHT22;35622;52.008;5.426;2023-04-25T06:11:13;12.80;74.00
49731;DHT22;35622;52.008;5.426;2023-04-25T06:13:38;12.90;74.60
49731;DHT22;35622;52.008;5.426;2023-04-25T06:16:04;13.00;74.00
49731;DHT22;35622;52.008;5.426;2023-04-25T06:18:30;13.20;70.00
49731;DHT22;35622;52.008;5.426;2023-04-25T06:20:55;13.10;69.50
49731;DHT22;35622;52.008;5.426;2023-04-25T06:23:21;13.10;69.00
49731;DHT22;35622;52.008;5.426;2023-04-25T06:25:47;13.20;68.50
49731;DHT22;35622;52.008;5.426;2023-04-25T06:28:12;13.50;67.30
49731;DHT22;35622;52.008;5.426;2023-04-25T06:30:38;13.70;66.00
49731;DHT22;35622;52.008;5.426;2023-04-25T06:33:03;13.90;65.90
49731;DHT22;35622;52.008;5.426;2023-04-25T06:35:29;14.20;66.20
49731;DHT22;35622;52.008;5.426;2023-04-25T06:37:55;14.60;65.90
49731;DHT22;35622;52.008;5.426;2023-04-25T06:40:20;14.80;60.40
49731;DHT22;35622;52.008;5.426;2023-04-25T06:42:46;15.00;58.60
49731;DHT22;35622;52.008;5.426;2023-04-25T06:45:11;15.10;57.70
49731;DHT22;35622;52.008;5.426;2023-04-25T06:47:37;15.20;57.40
49731;DHT22;35622;52.008;5.426;2023-04-25T06:50:03;15.50;56.50
49731;DHT22;35622;52.008;5.426;2023-04-25T06:52:28;16.60;56.20
49731;DHT22;35622;52.008;5.426;2023-04-25T06:54:54;18.90;55.90
49731;DHT22;35622;52.008;5.426;2023-04-25T06:57:20;21.50;46.90
49731;DHT22;35622;52.008;5.426;2023-04-25T06:59:45;23.50;41.50
49731;DHT22;35622;52.008;5.426;2023-04-25T07:02:11;24.90;32.70
49731;DHT22;35622;52.008;5.426;2023-04-25T07:04:36;26.10;31.30
49731;DHT22;35622;52.008;5.426;2023-04-25T07:07:02;27.00;28.80
49731;DHT22;35622;52.008;5.426;2023-04-25T07:09:29;27.40;26.70
49731;DHT22;35622;52.008;5.426;2023-04-25T07:11:55;27.90;26.40
49731;DHT22;35622;52.008;5.426;2023-04-25T07:14:21;27.90;25.60
49731;DHT22;35622;52.008;5.426;2023-04-25T07:16:47;28.50;26.20
49731;DHT22;35622;52.008;5.426;2023-04-25T07:19:13;29.40;23.80
49731;DHT22;35622;52.008;5.426;2023-04-25T07:21:38;30.30;22.90
49731;DHT22;35622;52.008;5.426;2023-04-25T07:24:04;30.90;21.90
49731;DHT22;35622;52.008;5.426;2023-04-25T07:26:30;31.80;21.30
49731;DHT22;35622;52.008;5.426;2023-04-25T07:28:55;32.10;20.10
49731;DHT22;35622;52.008;5.426;2023-04-25T07:31:22;32.70;20.90
49731;DHT22;35622;52.008;5.426;2023-04-25T07:33:48;33.10;20.20
49731;DHT22;35622;52.008;5.426;2023-04-25T07:36:13;34.00;18.90
49731;DHT22;35622;52.008;5.426;2023-04-25T07:38:40;34.40;18.70
49731;DHT22;35622;52.008;5.426;2023-04-25T07:41:06;34.70;18.00
49731;DHT22;35622;52.008;5.426;2023-04-25T07:43:31;35.00;16.70
49731;DHT22;35622;52.008;5.426;2023-04-25T07:45:57;35.00;16.70
49731;DHT22;35622;52.008;5.426;2023-04-25T07:48:23;35.30;17.10
49731;DHT22;35622;52.008;5.426;2023-04-25T07:50:48;35.90;16.90
49731;DHT22;35622;52.008;5.426;2023-04-25T07:53:14;35.70;16.20
49731;DHT22;35622;52.008;5.426;2023-04-25T07:55:40;35.00;15.90
49731;DHT22;35622;52.008;5.426;2023-04-25T07:58:09;33.40;15.50
49731;DHT22;35622;52.008;5.426;2023-04-25T08:00:35;31.90;16.80
49731;DHT22;35622;52.008;5.426;2023-04-25T08:03:01;30.20;17.60
49731;DHT22;35622;52.008;5.426;2023-04-25T08:05:28;28.30;19.20
49731;DHT22;35622;52.008;5.426;2023-04-25T08:07:53;26.90;21.20
49731;DHT22;35622;52.008;5.426;2023-04-25T08:10:19;25.60;22.20
49731;DHT22;35622;52.008;5.426;2023-04-25T08:12:44;24.50;23.00
49731;DHT22;35622;52.008;5.426;2023-04-25T08:15:10;23.40;24.50
49731;DHT22;35622;52.008;5.426;2023-04-25T08:17:36;22.80;25.10
49731;DHT22;35622;52.008;5.426;2023-04-25T08:20:02;22.10;26.40
49731;DHT22;35622;52.008;5.426;2023-04-25T08:22:31;22.40;26.70
49731;DHT22;35622;52.008;5.426;2023-04-25T08:24:57;23.10;26.90
49731;DHT22;35622;52.008;5.426;2023-04-25T08:27:22;23.50;26.10
49731;DHT22;35622;52.008;5.426;2023-04-25T08:29:49;24.60;25.90
49731;DHT22;35622;52.008;5.426;2023-04-25T08:32:15;25.70;24.00
49731;DHT22;35622;52.008;5.426;2023-04-25T08:34:40;26.80;23.00
49731;DHT22;35622;52.008;5.426;2023-04-25T08:37:08;28.40;21.80
49731;DHT22;35622;52.008;5.426;2023-04-25T08:39:35;29.20;20.60
49731;DHT22;35622;52.008;5.426;2023-04-25T08:42:02;30.30;20.20
49731;DHT22;35622;52.008;5.426;2023-04-25T08:44:33;31.90;19.30
49731;DHT22;35622;52.008;5.426;2023-04-25T08:46:59;33.20;17.20
49731;DHT22;35622;52.008;5.426;2023-04-25T08:49:25;33.40;16.00
49731;DHT22;35622;52.008;5.426;2023-04-25T08:51:52;32.60;16.50
49731;DHT22;35622;52.008;5.426;2023-04-25T08:54:20;31.20;17.30
49731;DHT22;35622;52.008;5.426;2023-04-25T08:56:49;29.90;18.50
49731;DHT22;35622;52.008;5.426;2023-04-25T08:59:15;29.80;19.30
49731;DHT22;35622;52.008;5.426;2023-04-25T09:01:40;31.00;19.10
49731;DHT22;35622;52.008;5.426;2023-04-25T09:04:06;31.90;19.10
49731;DHT22;35622;52.008;5.426;2023-04-25T09:06:32;33.70;17.20
49731;DHT22;35622;52.008;5.426;2023-04-25T09:09:07;34.90;15.80
49731;DHT22;35622;52.008;5.426;2023-04-25T09:11:33;34.30;15.00
49731;DHT22;35622;52.008;5.426;2023-04-25T09:14:16;32.80;15.40
49731;DHT22;35622;52.008;5.426;2023-04-25T09:21:55;26.90;18.60
49731;DHT22;35622;52.008;5.426;2023-04-25T09:24:35;25.40;20.30
49731;DHT22;35622;52.008;5.426;2023-04-25T09:27:03;24.40;21.40
49731;DHT22;35622;52.008;5.426;2023-04-25T09:29:36;24.00;22.20
49731;DHT22;35622;52.008;5.426;2023-04-25T09:32:20;25.50;22.80
49731;DHT22;35622;52.008;5.426;2023-04-25T09:34:51;28.30;20.10
49731;DHT22;35622;52.008;5.426;2023-04-25T09:37:22;30.00;18.90
49731;DHT22;35622;52.008;5.426;2023-04-25T09:39:50;29.20;18.00
49731;DHT22;35622;52.008;5.426;2023-04-25T09:42:17;27.70;18.60
49731;DHT22;35622;52.008;5.426;2023-04-25T09:44:46;26.70;20.30
49731;DHT22;35622;52.008;5.426;2023-04-25T09:47:13;28.20;21.00
49731;DHT22;35622;52.008;5.426;2023-04-25T09:49:43;30.80;19.70
49731;DHT22;35622;52.008;5.426;2023-04-25T09:52:13;32.70;16.90
49731;DHT22;35622;52.008;5.426;2023-04-25T09:54:40;32.90;15.70
49731;DHT22;35622;52.008;5.426;2023-04-25T09:57:11;32.40;16.00
49731;DHT22;35622;52.008;5.426;2023-04-25T09:59:54;31.10;16.40
49731;DHT22;35622;52.008;5.426;2023-04-25T10:02:23;29.60;17.50
49731;DHT22;35622;52.008;5.426;2023-04-25T10:04:52;28.00;18.40
49731;DHT22;35622;52.008;5.426;2023-04-25T10:07:22;26.50;20.20
49731;DHT22;35622;52.008;5.426;2023-04-25T10:09:54;25.20;21.10
49731;DHT22;35622;52.008;5.426;2023-04-25T10:12:21;23.80;23.30
49731;DHT22;35622;52.008;5.426;2023-04-25T10:14:47;23.00;23.80
49731;DHT22;35622;52.008;5.426;2023-04-25T10:17:14;22.30;25.30
49731;DHT22;35622;52.008;5.426;2023-04-25T10:19:40;21.70;26.50
49731;DHT22;35622;52.008;5.426;2023-04-25T10:24:57;21.40;28.40
49731;DHT22;35622;52.008;5.426;2023-04-25T10:27:23;22.40;27.40
49731;DHT22;35622;52.008;5.426;2023-04-25T10:30:08;22.60;26.50
49731;DHT22;35622;52.008;5.426;2023-04-25T10:32:36;22.70;26.30
49731;DHT22;35622;52.008;5.426;2023-04-25T10:35:16;23.00;26.10
49731;DHT22;35622;52.008;5.426;2023-04-25T10:37:58;23.10;26.40
49731;DHT22;35622;52.008;5.426;2023-04-25T10:40:24;23.40;26.60
49731;DHT22;35622;52.008;5.426;2023-04-25T10:42:52;23.50;26.30
49731;DHT22;35622;52.008;5.426;2023-04-25T10:45:20;23.50;26.00
49731;DHT22;35622;52.008;5.426;2023-04-25T10:47:46;23.30;25.30
49731;DHT22;35622;52.008;5.426;2023-04-25T10:50:13;22.90;25.20
49731;DHT22;35622;52.008;5.426;2023-04-25T10:52:39;22.70;25.90
49731;DHT22;35622;52.008;5.426;2023-04-25T10:55:06;22.80;26.00
49731;DHT22;35622;52.008;5.426;2023-04-25T10:57:43;22.70;26.20
49731;DHT22;35622;52.008;5.426;2023-04-25T11:00:17;22.50;26.60
49731;DHT22;35622;52.008;5.426;2023-04-25T11:02:57;22.50;26.10
49731;DHT22;35622;52.008;5.426;2023-04-25T11:05:30;22.60;26.00
49731;DHT22;35622;52.008;5.426;2023-04-25T11:07:57;22.80;25.40
49731;DHT22;35622;52.008;5.426;2023-04-25T11:10:27;23.00;23.60
49731;DHT22;35622;52.008;5.426;2023-04-25T11:12:54;22.80;23.70
49731;DHT22;35622;52.008;5.426;2023-04-25T11:15:19;22.50;24.10
49731;DHT22;35622;52.008;5.426;2023-04-25T11:17:45;22.00;24.70
49731;DHT22;35622;52.008;5.426;2023-04-25T11:20:12;21.50;24.90
49731;DHT22;35622;52.008;5.426;2023-04-25T11:22:39;20.90;25.80
49731;DHT22;35622;52.008;5.426;2023-04-25T11:25:08;20.40;26.20
49731;DHT22;35622;52.008;5.426;2023-04-25T11:27:53;20.00;26.90
49731;DHT22;35622;52.008;5.426;2023-04-25T11:30:20;19.90;27.60
49731;DHT22;35622;52.008;5.426;2023-04-25T11:32:46;21.00;28.40
49731;DHT22;35622;52.008;5.426;2023-04-25T11:35:12;22.70;26.90
49731;DHT22;35622;52.008;5.426;2023-04-25T11:37:42;22.90;25.10
49731;DHT22;35622;52.008;5.426;2023-04-25T11:40:09;22.60;25.20
49731;DHT22;35622;52.008;5.426;2023-04-25T11:42:38;21.90;25.60
49731;DHT22;35622;52.008;5.426;2023-04-25T11:45:05;21.10;26.70
49731;DHT22;35622;52.008;5.426;2023-04-25T11:47:32;20.40;27.80
49731;DHT22;35622;52.008;5.426;2023-04-25T11:49:58;19.80;28.20
49731;DHT22;35622;52.008;5.426;2023-04-25T11:52:35;19.80;29.40
49731;DHT22;35622;52.008;5.426;2023-04-25T11:55:00;20.40;29.50
49731;DHT22;35622;52.008;5.426;2023-04-25T11:57:26;20.70;28.50
49731;DHT22;35622;52.008;5.426;2023-04-25T11:59:51;20.60;28.00
49731;DHT22;35622;52.008;5.426;2023-04-25T12:02:26;20.70;28.50
49731;DHT22;35622;52.008;5.426;2023-04-25T12:04:52;20.90;28.00
49731;DHT22;35622;52.008;5.426;2023-04-25T12:07:18;20.90;27.50
49731;DHT22;35622;52.008;5.426;2023-04-25T12:09:51;22.40;27.50
49731;DHT22;35622;52.008;5.426;2023-04-25T12:12:17;25.80;25.30
49731;DHT22;35622;52.008;5.426;2023-04-25T12:14:47;28.70;21.70
49731;DHT22;35622;52.008;5.426;2023-04-25T12:17:17;30.50;19.00
49731;DHT22;35622;52.008;5.426;2023-04-25T12:19:47;32.10;18.00
49731;DHT22;35622;52.008;5.426;2023-04-25T12:22:23;33.20;16.50
49731;DHT22;35622;52.008;5.426;2023-04-25T12:24:49;34.00;15.70
49731;DHT22;35622;52.008;5.426;2023-04-25T12:27:16;32.80;15.10
49731;DHT22;35622;52.008;5.426;2023-04-25T12:29:53;30.50;15.70
49731;DHT22;35622;52.008;5.426;2023-04-25T12:32:19;28.30;17.40
49731;DHT22;35622;52.008;5.426;2023-04-25T12:34:45;26.20;18.60
49731;DHT22;35622;52.008;5.426;2023-04-25T12:37:11;25.00;20.50
49731;DHT22;35622;52.008;5.426;2023-04-25T12:39:37;24.20;21.30
49731;DHT22;35622;52.008;5.426;2023-04-25T12:42:02;23.40;22.20
49731;DHT22;35622;52.008;5.426;2023-04-25T12:44:28;22.80;22.20
49731;DHT22;35622;52.008;5.426;2023-04-25T12:46:54;22.50;22.70
49731;DHT22;35622;52.008;5.426;2023-04-25T12:49:20;22.20;22.80
49731;DHT22;35622;52.008;5.426;2023-04-25T12:51:46;22.20;23.70
49731;DHT22;35622;52.008;5.426;2023-04-25T12:54:12;22.30;23.90
49731;DHT22;35622;52.008;5.426;2023-04-25T12:56:38;22.20;23.50
49731;DHT22;35622;52.008;5.426;2023-04-25T12:59:03;22.30;23.80
49731;DHT22;35622;52.008;5.426;2023-04-25T13:01:29;22.30;23.10
49731;DHT22;35622;52.008;5.426;2023-04-25T13:03:55;22.10;22.90
49731;DHT22;35622;52.008;5.426;2023-04-25T13:06:21;22.00;23.70
49731;DHT22;35622;52.008;5.426;2023-04-25T13:08:47;21.70;23.10
49731;DHT22;35622;52.008;5.426;2023-04-25T13:11:13;21.60;23.00
49731;DHT22;35622;52.008;5.426;2023-04-25T13:13:40;21.50;23.80
49731;DHT22;35622;52.008;5.426;2023-04-25T13:16:07;21.40;24.30
49731;DHT22;35622;52.008;5.426;2023-04-25T13:18:33;21.40;24.30
49731;DHT22;35622;52.008;5.426;2023-04-25T13:21:12;21.40;24.80
49731;DHT22;35622;52.008;5.426;2023-04-25T13:23:38;21.60;24.90
49731;DHT22;35622;52.008;5.426;2023-04-25T13:26:04;21.60;24.70
49731;DHT22;35622;52.008;5.426;2023-04-25T13:28:29;21.30;24.30
49731;DHT22;35622;52.008;5.426;2023-04-25T13:30:55;21.10;24.90
49731;DHT22;35622;52.008;5.426;2023-04-25T13:33:21;21.00;24.90
49731;DHT22;35622;52.008;5.426;2023-04-25T13:35:48;20.70;25.20
49731;DHT22;35622;52.008;5.426;2023-04-25T13:38:23;20.40;25.50
49731;DHT22;35622;52.008;5.426;2023-04-25T13:40:49;20.20;26.20
49731;DHT22;35622;52.008;5.426;2023-04-25T13:43:18;20.10;27.40
49731;DHT22;35622;52.008;5.426;2023-04-25T13:45:43;20.30;27.60
49731;DHT22;35622;52.008;5.426;2023-04-25T13:48:09;20.50;27.10
49731;DHT22;35622;52.008;5.426;2023-04-25T13:50:34;20.40;26.90
49731;DHT22;35622;52.008;5.426;2023-04-25T13:53:00;20.40;27.10
49731;DHT22;35622;52.008;5.426;2023-04-25T13:55:26;20.40;27.70
49731;DHT22;35622;52.008;5.426;2023-04-25T13:57:52;20.20;27.10
49731;DHT22;35622;52.008;5.426;2023-04-25T14:00:17;20.10;27.50
49731;DHT22;35622;52.008;5.426;2023-04-25T14:02:43;19.80;26.60
49731;DHT22;35622;52.008;5.426;2023-04-25T14:05:09;19.50;26.40
49731;DHT22;35622;52.008;5.426;2023-04-25T14:07:35;19.10;26.80
49731;DHT22;35622;52.008;5.426;2023-04-25T14:10:01;18.70;26.70
49731;DHT22;35622;52.008;5.426;2023-04-25T14:12:26;18.50;27.10
49731;DHT22;35622;52.008;5.426;2023-04-25T14:14:52;18.50;28.00
49731;DHT22;35622;52.008;5.426;2023-04-25T14:17:21;18.60;28.20
49731;DHT22;35622;52.008;5.426;2023-04-25T14:19:46;18.40;28.30
49731;DHT22;35622;52.008;5.426;2023-04-25T14:22:14;18.20;28.50
49731;DHT22;35622;52.008;5.426;2023-04-25T14:24:40;17.90;29.10
49731;DHT22;35622;52.008;5.426;2023-04-25T14:27:05;17.80;29.20
49731;DHT22;35622;52.008;5.426;2023-04-25T14:29:31;17.60;29.40
49731;DHT22;35622;52.008;5.426;2023-04-25T14:31:57;17.50;29.20
49731;DHT22;35622;52.008;5.426;2023-04-25T14:34:24;17.40;29.40
49731;DHT22;35622;52.008;5.426;2023-04-25T14:36:49;17.30;29.20
49731;DHT22;35622;52.008;5.426;2023-04-25T14:39:15;17.10;29.60
49731;DHT22;35622;52.008;5.426;2023-04-25T14:41:42;17.00;29.70
49731;DHT22;35622;52.008;5.426;2023-04-25T14:44:07;17.20;29.30
49731;DHT22;35622;52.008;5.426;2023-04-25T14:46:33;17.10;28.90
49731;DHT22;35622;52.008;5.426;2023-04-25T14:48:59;17.10;29.50
49731;DHT22;35622;52.008;5.426;2023-04-25T14:51:24;17.00;30.40
49731;DHT22;35622;52.008;5.426;2023-04-25T14:53:51;17.00;30.90
49731;DHT22;35622;52.008;5.426;2023-04-25T14:56:18;17.00;31.10
49731;DHT22;35622;52.008;5.426;2023-04-25T14:58:46;17.10;31.50
49731;DHT22;35622;52.008;5.426;2023-04-25T15:01:12;17.00;31.40
49731;DHT22;35622;52.008;5.426;2023-04-25T15:03:40;16.90;31.40
49731;DHT22;35622;52.008;5.426;2023-04-25T15:06:06;16.70;31.20
49731;DHT22;35622;52.008;5.426;2023-04-25T15:08:31;16.60;32.30
49731;DHT22;35622;52.008;5.426;2023-04-25T15:10:58;16.40;32.90
49731;DHT22;35622;52.008;5.426;2023-04-25T15:13:24;16.30;33.20
49731;DHT22;35622;52.008;5.426;2023-04-25T15:15:50;16.50;33.60
49731;DHT22;35622;52.008;5.426;2023-04-25T15:18:20;16.70;33.40
49731;DHT22;35622;52.008;5.426;2023-04-25T15:20:50;17.00;33.60
49731;DHT22;35622;52.008;5.426;2023-04-25T15:23:17;17.10;33.40
49731;DHT22;35622;52.008;5.426;2023-04-25T15:25:43;17.20;32.10
49731;DHT22;35622;52.008;5.426;2023-04-25T15:28:08;17.00;31.60
49731;DHT22;35622;52.008;5.426;2023-04-25T15:30:34;16.80;31.50
49731;DHT22;35622;52.008;5.426;2023-04-25T15:33:00;16.80;31.30
49731;DHT22;35622;52.008;5.426;2023-04-25T15:35:26;16.80;31.20
49731;DHT22;35622;52.008;5.426;2023-04-25T15:37:51;16.80;31.40
49731;DHT22;35622;52.008;5.426;2023-04-25T15:40:17;16.80;31.30
49731;DHT22;35622;52.008;5.426;2023-04-25T15:42:44;16.70;31.50